Αναφορές METAR

 

LGTS - Thessaloniki/Mik, Greece
Απόσταση από το σταθμό: ΝΝΔ 77km
Ενημερώθηκε: 27/06/2017 18:20
Διάσπαρτα Νέφη
Διάσπαρτα Νέφη
 Ανεμος από Ν
Ανεμος: Ν 22 km/h
Θερμοκρασία: 33°C
Σημείο Δρόσου: 14°C
Υγρασία: 32%
Βαρόμετρο: 1009 hPa
Νέφωση: Διάσπαρτα Νέφη
Ορατότητα: 10 km
Λεπτομέρειες νέφωσης: Διάσπαρτα Νέφη 1067 m
2017/06/27 15:20 LGTS 271520Z 17012KT 9999 FEW035 33/14 Q1009 NOSIG
LGKV - Kavala/Chrisoupo, Greece
Απόσταση από το σταθμό: ΑΝΑ 120km
Ενημερώθηκε: 27/06/2017 18:20
Διάσπαρτα Νέφη
Διάσπαρτα Νέφη
 Ανεμος από Ν
Ανεμος: Ν 7 km/h
Θερμοκρασία: 31°C
Heat Index: 32°C
Σημείο Δρόσου: 18°C
Υγρασία: 46%
Βαρόμετρο: 1009 hPa
Νέφωση: Διάσπαρτα Νέφη
Ορατότητα: 10 km
Λεπτομέρειες νέφωσης: Διάσπαρτα Νέφη 610 m
2017/06/27 15:20 LGKV 271520Z 19004KT 9999 FEW020TCU 31/18 Q1009
 
LGKZ - Kozani (civ/Army, Greece
Απόσταση από το σταθμό: ΝΔ 154km
Ενημερώθηκε: 27/06/2017 17:50
Μερικώς Νεφελώδης
Μερικώς Νεφελώδης
 Ανεμος από calm
Ανεμος: Απνοια
Θερμοκρασία: 34°C
Σημείο Δρόσου: 12°C
Υγρασία: 26%
Βαρόμετρο: 1014 hPa
Νέφωση: Μερικώς Νεφελώδης
Ορατότητα: 10 km
Λεπτομέρειες νέφωσης: Διάσπαρτα Νέφη 914 m
Μερικώς Νεφελώδης 2134 m
2017/06/27 14:50 LGKZ 271450Z 00000KT 9999 FEW030 SCT070 34/12 Q1014
LWSK - Skopje/Petrovac, Macedonia
Απόσταση από το σταθμό: ΔΒΔ 159km
Ενημερώθηκε: 27/06/2017 18:30
Αίθριος
Αίθριος
 Ανεμος από calm
Ανεμος: Απνοια
Θερμοκρασία: 33°C
Σημείο Δρόσου: 13°C
Υγρασία: 30%
Βαρόμετρο: 1010 hPa
Summary: Αίθριος
Ορατότητα: greater than 10 km
2017/06/27 15:30 LWSK 271530Z 00000KT CAVOK 33/13 Q1010 NOSIG
 
LBSF - Sofia (observato, Bulgaria
Απόσταση από το σταθμό: Β 164km
Ενημερώθηκε: 27/06/2017 18:30
Μερικώς Νεφελώδης
Μερικώς Νεφελώδης
 Ανεμος από ΒΑ
Ανεμος: ΒΑ 17 km/h
Θερμοκρασία: 28°C
Heat Index: 28°C
Σημείο Δρόσου: 15°C
Υγρασία: 45%
Βαρόμετρο: 1012 hPa
Νέφωση: Μερικώς Νεφελώδης
Ορατότητα: 10 km
Λεπτομέρειες νέφωσης: Μερικώς Νεφελώδης 2103 m
2017/06/27 15:30 LBSF 271530Z 04009KT 020V080 9999 SCT069 28/15 Q1012 NOSIG
LBPD - Plovdiv, Bulgaria
Απόσταση από το σταθμό: ΒΑ 168km
Ενημερώθηκε: 27/06/2017 18:30
Διάσπαρτα Νέφη
Διάσπαρτα Νέφη
 Ανεμος από ΑΝΑ
Ανεμος: ΑΝΑ 26 km/h
Θερμοκρασία: 31°C
Heat Index: 32°C
Σημείο Δρόσου: 17°C
Υγρασία: 43%
Βαρόμετρο: 1009 hPa
Νέφωση: Διάσπαρτα Νέφη
Ορατότητα: 10 km
Λεπτομέρειες νέφωσης: Διάσπαρτα Νέφη 2499 m
2017/06/27 15:30 LBPD 271530Z AUTO 12014KT 9999 FEW082/// 31/17 Q1009 TEMPO SHRA FEW030CB
 
LWOH - Ohrid, Macedonia
Απόσταση από το σταθμό: Δ 204km
Ενημερώθηκε: 27/06/2017 18:30
Διάσπαρτα Νέφη
Διάσπαρτα Νέφη
 Ανεμος από ΝΔ
Ανεμος: ΝΔ 15 km/h
Θερμοκρασία: 30°C
Σημείο Δρόσου: 10°C
Υγρασία: 29%
Βαρόμετρο: 1014 hPa
Νέφωση: Διάσπαρτα Νέφη
Ορατότητα: 10 km
Λεπτομέρειες νέφωσης: Διάσπαρτα Νέφη 1219 m
2017/06/27 15:30 LWOH 271530Z 22008KT 9999 FEW040 30/10 Q1014
LGLM - Limnos Island Ar, Greece
Απόσταση από το σταθμό: ΝΑ 220km
Ενημερώθηκε: 27/06/2017 18:20
Αίθριος
Αίθριος
 Ανεμος από ΝΝΑ
Ανεμος: ΝΝΑ 6 km/h
Θερμοκρασία: 31°C
Heat Index: 32°C
Σημείο Δρόσου: 18°C
Υγρασία: 46%
Βαρόμετρο: 1010 hPa
Summary: Αίθριος
Ορατότητα: greater than 10 km
2017/06/27 15:20 LGLM 271520Z 16003KT CAVOK 31/18 Q1010
 
LGBL - Nea Anchialos, Greece
Απόσταση από το σταθμό: Ν 221km
Ενημερώθηκε: 27/06/2017 18:20
Διάσπαρτα Νέφη
Διάσπαρτα Νέφη
 Ανεμος από Α
Ανεμος: Α 20 km/h
Θερμοκρασία: 32°C
Heat Index: 33°C
Σημείο Δρόσου: 18°C
Υγρασία: 43%
Βαρόμετρο: 1009 hPa
Νέφωση: Διάσπαρτα Νέφη
Ορατότητα: 10 km
Λεπτομέρειες νέφωσης: Διάσπαρτα Νέφη 914 m
2017/06/27 15:20 LGBL 271520Z 10011KT 9999 FEW030 32/18 Q1009
LGSK - Skiathos Island, Greece
Απόσταση από το σταθμό: Ν 223km
Ενημερώθηκε: 27/06/2017 17:50
Αίθριος
Αίθριος
 Ανεμος από ΝΝΔ
Ανεμος: ΝΝΔ 9 km/h
Θερμοκρασία: 30°C
Heat Index: 33°C
Σημείο Δρόσου: 21°C
Υγρασία: 59%
Βαρόμετρο: 1010 hPa
Summary: Αίθριος
Ορατότητα: greater than 10 km
2017/06/27 14:50 LGSK 271450Z 21005KT CAVOK 30/21 Q1010
 
LGAL - Alexandroupolis, Greece
Απόσταση από το σταθμό: Α 231km
Ενημερώθηκε: 27/06/2017 18:20
Διάσπαρτα Νέφη
Διάσπαρτα Νέφη
 Ανεμος από ΔΝΔ
Ανεμος: ΔΝΔ 13 km/h
Θερμοκρασία: 31°C
Heat Index: 33°C
Σημείο Δρόσου: 20°C
Υγρασία: 52%
Βαρόμετρο: 1010 hPa
Νέφωση: Διάσπαρτα Νέφη
Ορατότητα: 10 km
Λεπτομέρειες νέφωσης: Διάσπαρτα Νέφη 762 m
2017/06/27 15:20 LGAL 271520Z 24007KT 9999 FEW025TCU 31/20 Q1010
BKPR - Prishtina, Yugoslavia
Απόσταση από το σταθμό: ΒΔ 240km
Ενημερώθηκε: 27/06/2017 18:30
Διάσπαρτα Νέφη
Διάσπαρτα Νέφη
 Ανεμος από ΝΝΔ
Ανεμος: ΝΝΔ 7 km/h
Θερμοκρασία: 31°C
Σημείο Δρόσου: 12°C
Υγρασία: 31%
Βαρόμετρο: 1012 hPa
Νέφωση: Διάσπαρτα Νέφη
Ορατότητα: 10 km
Λεπτομέρειες νέφωσης: Διάσπαρτα Νέφη 1524 m
2017/06/27 15:30 BKPR 271530Z 21004KT 160V250 9999 FEW050 31/12 Q1012 NOSIG
 
LGIO - Ioannina, Greece
Απόσταση από το σταθμό: ΝΔ 262km
Ενημερώθηκε: 27/06/2017 18:20
Διάσπαρτα Νέφη
Διάσπαρτα Νέφη
 Ανεμος από μεταβλητός
Ανεμος: μεταβλητός 0 km/h
Θερμοκρασία: 32°C
Σημείο Δρόσου: 14°C
Υγρασία: 33%
Βαρόμετρο: 1014 hPa
Νέφωση: Διάσπαρτα Νέφη
Ορατότητα: 10 km
Λεπτομέρειες νέφωσης: Διάσπαρτα Νέφη 1067 m
2017/06/27 15:20 LGIO 271520Z /////KT 9999 FEW035 32/14 Q1014
LYNI - Nis, Yugoslavia
Απόσταση από το σταθμό: ΒΒΔ 262km
Ενημερώθηκε: 27/06/2017 18:30
Διάσπαρτα Νέφη
Διάσπαρτα Νέφη
 Ανεμος από μεταβλητός
Ανεμος: μεταβλητός 2 km/h
Θερμοκρασία: 32°C
Σημείο Δρόσου: 16°C
Υγρασία: 38%
Βαρόμετρο: 1010 hPa
Νέφωση: Διάσπαρτα Νέφη
Ορατότητα: 10 km
Λεπτομέρειες νέφωσης: Διάσπαρτα Νέφη 1219 m
2017/06/27 15:30 LYNI 271530Z VRB01KT 9999 FEW040 32/16 Q1010 NOSIG
 
LGSY - Skiros, Greece
Απόσταση από το σταθμό: ΝΝΑ 268km
Ενημερώθηκε: 27/06/2017 17:50
Αίθριος
Αίθριος
 Ανεμος από Α
Ανεμος: Α 15 km/h
Θερμοκρασία: 30°C
Heat Index: 29°C
Σημείο Δρόσου: 15°C
Υγρασία: 40%
Βαρόμετρο: 1009 hPa
Summary: Αίθριος
Ορατότητα: greater than 10 km
2017/06/27 14:50 LGSY 271450Z 08008KT CAVOK 30/15 Q1009 BLU
LATI - Tirana, Albania
Απόσταση από το σταθμό: Δ 290km
Ενημερώθηκε: 27/06/2017 18:20
Αίθριος
Αίθριος
 Ανεμος από ΒΔ
Ανεμος: ΒΔ 9 km/h
Θερμοκρασία: 34°C
Σημείο Δρόσου: 17°C
Υγρασία: 36%
Βαρόμετρο: 1011 hPa
Summary: Αίθριος
Ορατότητα: greater than 10 km
2017/06/27 15:20 LATI 271520Z 31005KT 270V360 CAVOK 34/17 Q1011 NOSIG
 
LBGO - Gorna Orechovist, Bulgaria
Απόσταση από το σταθμό: ΒΑ 300km
Ενημερώθηκε: 27/06/2017 18:30
Αίθριος
Αίθριος
 Ανεμος από Β
Ανεμος: Β 11 km/h
Θερμοκρασία: 29°C
Heat Index: 30°C
Σημείο Δρόσου: 19°C
Υγρασία: 55%
Βαρόμετρο: 1011 hPa
Νέφωση: Αίθριος
Ορατότητα: 10 km
2017/06/27 15:30 LBGO 271530Z AUTO 01006KT 9999 NCD 29/19 Q1011 NOSIG
LGPZ - Preveza/Aktion, Greece
Απόσταση από το σταθμό: ΝΔ 328km
Ενημερώθηκε: 27/06/2017 18:20
Διάσπαρτα Νέφη
Διάσπαρτα Νέφη
 Ανεμος από Δ
Ανεμος: Δ 22 km/h
Θερμοκρασία: 28°C
Heat Index: 30°C
Σημείο Δρόσου: 22°C
Υγρασία: 70%
Βαρόμετρο: 1011 hPa
Νέφωση: Διάσπαρτα Νέφη
Ορατότητα: 10 km
Λεπτομέρειες νέφωσης: Διάσπαρτα Νέφη 762 m
2017/06/27 15:20 LGPZ 271520Z 26012KT 9999 FEW025 28/22 Q1011
 
LGKR - Ioannis Kapodist, Greece
Απόσταση από το σταθμό: ΔΝΔ 330km
Ενημερώθηκε: 27/06/2017 18:20
Αίθριος
Αίθριος
 Ανεμος από Δ
Ανεμος: Δ 19 km/h
Θερμοκρασία: 32°C
Heat Index: 38°C
Σημείο Δρόσου: 24°C
Υγρασία: 63%
Βαρόμετρο: 1010 hPa
Summary: Αίθριος
Ορατότητα: greater than 10 km
2017/06/27 15:20 LGKR 271520Z 28010KT CAVOK 32/24 Q1010 NOSIG
LGEL - Elefsis (hel-Afb, Greece
Απόσταση από το σταθμό: Ν 347km
Ενημερώθηκε: 27/06/2017 18:20
Διάσπαρτα Νέφη
Διάσπαρτα Νέφη
 Ανεμος από Ν
Ανεμος: Ν 19 km/h
Θερμοκρασία: 32°C
Σημείο Δρόσου: 13°C
Υγρασία: 31%
Βαρόμετρο: 1010 hPa
Νέφωση: Διάσπαρτα Νέφη
Ορατότητα: 10 km
Λεπτομέρειες νέφωσης: Διάσπαρτα Νέφη 762 m
2017/06/27 15:20 LGEL 271520Z 19010KT 9999 FEW025 32/13 Q1010


 ♦     ♦     ♦     Ποτέ μη βασίζετε κρίσιμες αποφάσεις σ'αυτές ή οποιεσδήποτε πληροφορίες καιρού από το Internet     ♦     ♦     ♦